Bob Sikes Airport Crestview US
ICAO: KCEW
IATA: CEW
Category: Medium
Scheduled Services: No

Elevation: 213 ft
TransAlt. 18000 ft.

Airport Communications:
EGLIN APP/DEP:124.05
ASOS:119.275
GAINESVILLE RDO:122
CTAF/UNICOM:122.95

KCEW Zoom In..

Runways:

(A) RW 17 length 8004 ft width 150 ft
ILS 111.90 / hdg 171

(B) RW 35 length 8004 ft width 150 ft
---- / hdg 351

Location; KCEW
Day. 19 / Time. 20.53 Zulu
* Altimeter: 30.07
* Temperature: 28° c. 82.4°f.
* Wind from: 340° Speed 12 kn with Gusts up to 20 kn.
Dewpoint: 09° c.
Visibility: 10 Statute Miles.
Clouds: Few 200 ft.

KCEW 192053Z AUTO 34012G20KT 10SM FEW002 28/09 A3007 RMK AO2 SLP178 T02830089 56012


Wind From 340°
Speed 12 kn.

  YouTube Music Video
 
jpsmedia.com for Web Design  worldairports.se 2018   terms of use